hasanyilmaz

İniş rotası

Apr 15th, 2020
134
Never
Not a member of Pastebin yet? Sign Up, it unlocks many cool features!
  1. <?xml version='1.0' encoding='UTF-8'?>
  2. <gpx version="1.1" creator="https://www.komoot.de" xmlns="http://www.topografix.com/GPX/1/1" xmlns:xsi="http://www.w3.org/2001/XMLSchema-instance" xsi:schemaLocation="http://www.topografix.com/GPX/1/1 http://www.topografix.com/GPX/1/1/gpx.xsd">
  3.   <metadata>
  4.     <name>likya 7 düzeltme</name>
  5.     <author>
  6.       <link href="https://www.komoot.de">
  7.         <text>komoot</text>
  8.         <type>text/html</type>
  9.       </link>
  10.     </author>
  11.   </metadata>
  12.   <trk>
  13.     <name>likya 7 düzeltme</name>
  14.     <trkseg>
  15.       <trkpt lat="36.361126" lon="29.321307">
  16.         <ele>81.027973</ele>
  17.         <time>2020-04-14T22:03:18.478Z</time>
  18.       </trkpt>
  19.       <trkpt lat="36.361149" lon="29.321132">
  20.         <ele>81.027973</ele>
  21.         <time>2020-04-14T22:03:32.876Z</time>
  22.       </trkpt>
  23.       <trkpt lat="36.361256" lon="29.320805">
  24.         <ele>81.027973</ele>
  25.         <time>2020-04-14T22:04:01.643Z</time>
  26.       </trkpt>
  27.       <trkpt lat="36.361500" lon="29.320545">
  28.         <ele>81.027973</ele>
  29.         <time>2020-04-14T22:04:34.317Z</time>
  30.       </trkpt>
  31.       <trkpt lat="36.361543" lon="29.320293">
  32.         <ele>80.932808</ele>
  33.         <time>2020-04-14T22:04:55.336Z</time>
  34.       </trkpt>
  35.       <trkpt lat="36.361921" lon="29.320736">
  36.         <ele>80.059964</ele>
  37.         <time>2020-04-14T22:05:48.751Z</time>
  38.       </trkpt>
  39.       <trkpt lat="36.361952" lon="29.320541">
  40.         <ele>79.791169</ele>
  41.         <time>2020-04-14T22:06:05.053Z</time>
  42.       </trkpt>
  43.       <trkpt lat="36.361846" lon="29.320018">
  44.         <ele>79.061838</ele>
  45.         <time>2020-04-14T22:06:50.174Z</time>
  46.       </trkpt>
  47.       <trkpt lat="36.361823" lon="29.319793">
  48.         <ele>78.755120</ele>
  49.         <time>2020-04-14T22:07:09.470Z</time>
  50.       </trkpt>
  51.       <trkpt lat="36.361757" lon="29.319129">
  52.         <ele>77.779641</ele>
  53.         <time>2020-04-14T22:08:06.129Z</time>
  54.       </trkpt>
  55.       <trkpt lat="36.361570" lon="29.318562">
  56.         <ele>76.578147</ele>
  57.         <time>2020-04-14T22:08:58.309Z</time>
  58.       </trkpt>
  59.       <trkpt lat="36.361351" lon="29.318057">
  60.         <ele>75.453401</ele>
  61.         <time>2020-04-14T22:09:47.125Z</time>
  62.       </trkpt>
  63.       <trkpt lat="36.361189" lon="29.317802">
  64.         <ele>74.816483</ele>
  65.         <time>2020-04-14T22:10:14.523Z</time>
  66.       </trkpt>
  67.       <trkpt lat="36.360886" lon="29.317725">
  68.         <ele>74.063360</ele>
  69.         <time>2020-04-14T22:10:46.792Z</time>
  70.       </trkpt>
  71.       <trkpt lat="36.360770" lon="29.317696">
  72.         <ele>73.775222</ele>
  73.         <time>2020-04-14T22:10:59.240Z</time>
  74.       </trkpt>
  75.       <trkpt lat="36.360243" lon="29.317682">
  76.         <ele>72.120455</ele>
  77.         <time>2020-04-14T22:11:54.349Z</time>
  78.       </trkpt>
  79.       <trkpt lat="36.360133" lon="29.317679">
  80.         <ele>71.764987</ele>
  81.         <time>2020-04-14T22:12:05.906Z</time>
  82.       </trkpt>
  83.       <trkpt lat="36.359824" lon="29.317723">
  84.         <ele>70.760141</ele>
  85.         <time>2020-04-14T22:12:38.633Z</time>
  86.       </trkpt>
  87.       <trkpt lat="36.359159" lon="29.317899">
  88.         <ele>68.563433</ele>
  89.         <time>2020-04-14T22:13:50.649Z</time>
  90.       </trkpt>
  91.       <trkpt lat="36.357878" lon="29.318615">
  92.         <ele>59.806628</ele>
  93.         <time>2020-04-14T22:16:27.397Z</time>
  94.       </trkpt>
  95.       <trkpt lat="36.357244" lon="29.318849">
  96.         <ele>55.186537</ele>
  97.         <time>2020-04-14T22:17:45.071Z</time>
  98.       </trkpt>
  99.       <trkpt lat="36.357083" lon="29.318859">
  100.         <ele>53.617120</ele>
  101.         <time>2020-04-14T22:18:04.524Z</time>
  102.       </trkpt>
  103.       <trkpt lat="36.356845" lon="29.318788">
  104.         <ele>51.234076</ele>
  105.         <time>2020-04-14T22:18:33.514Z</time>
  106.       </trkpt>
  107.       <trkpt lat="36.356691" lon="29.318732">
  108.         <ele>49.671800</ele>
  109.         <time>2020-04-14T22:18:52.712Z</time>
  110.       </trkpt>
  111.       <trkpt lat="36.356320" lon="29.318780">
  112.         <ele>46.040279</ele>
  113.         <time>2020-04-14T22:19:37.389Z</time>
  114.       </trkpt>
  115.       <trkpt lat="36.355914" lon="29.319096">
  116.         <ele>41.375223</ele>
  117.         <time>2020-04-14T22:20:35.166Z</time>
  118.       </trkpt>
  119.       <trkpt lat="36.354690" lon="29.319782">
  120.         <ele>29.997213</ele>
  121.         <time>2020-04-14T22:23:14.038Z</time>
  122.       </trkpt>
  123.       <trkpt lat="36.354199" lon="29.320227">
  124.         <ele>25.110841</ele>
  125.         <time>2020-04-14T22:24:23.480Z</time>
  126.       </trkpt>
  127.       <trkpt lat="36.354022" lon="29.320400">
  128.         <ele>23.571782</ele>
  129.         <time>2020-04-14T22:24:48.863Z</time>
  130.       </trkpt>
  131.       <trkpt lat="36.353813" lon="29.320530">
  132.         <ele>23.571782</ele>
  133.         <time>2020-04-14T22:25:14.648Z</time>
  134.       </trkpt>
  135.       <trkpt lat="36.353607" lon="29.320579">
  136.         <ele>23.571782</ele>
  137.         <time>2020-04-14T22:25:37.871Z</time>
  138.       </trkpt>
  139.       <trkpt lat="36.352733" lon="29.319983">
  140.         <ele>23.571782</ele>
  141.         <time>2020-04-14T22:27:24.182Z</time>
  142.       </trkpt>
  143.       <trkpt lat="36.352592" lon="29.319921">
  144.         <ele>23.571782</ele>
  145.         <time>2020-04-14T22:27:39.438Z</time>
  146.       </trkpt>
  147.       <trkpt lat="36.352181" lon="29.319742">
  148.         <ele>23.571782</ele>
  149.         <time>2020-04-14T22:28:23.721Z</time>
  150.       </trkpt>
  151.     </trkseg>
  152.   </trk>
  153. </gpx>
RAW Paste Data